createdAt,value
2022-09-03T08:33:37.459Z,6.78
2022-09-03T08:35:40.300Z,7.30
2022-09-03T08:37:42.576Z,7.00
2022-09-03T08:39:45.744Z,6.05
2022-09-03T08:41:51.644Z,6.18
2022-09-03T08:43:58.163Z,7.20
2022-09-03T08:46:05.690Z,4.78
2022-09-03T08:48:15.405Z,5.07
2022-09-03T08:50:33.048Z,5.35
2022-09-03T08:53:07.372Z,5.00
2022-09-03T08:55:22.247Z,4.62
2022-09-03T08:57:25.788Z,4.18
2022-09-03T08:59:32.992Z,4.30
2022-09-03T09:02:07.130Z,4.82
2022-09-03T09:04:24.528Z,3.33
2022-09-03T09:06:40.035Z,4.95
2022-09-03T09:08:51.345Z,5.80
2022-09-03T09:11:21.686Z,4.43
2022-09-03T09:13:45.679Z,3.85
2022-09-03T09:15:48.207Z,4.35
2022-09-03T09:18:14.669Z,4.28
2022-09-03T09:20:42.725Z,3.97
2022-09-03T09:22:50.738Z,3.83
2022-09-03T09:24:55.747Z,3.55
2022-09-03T09:27:04.425Z,3.50
2022-09-03T09:29:11.410Z,4.40
2022-09-03T09:31:18.917Z,5.43
2022-09-03T09:33:21.872Z,5.15
2022-09-03T09:35:24.865Z,3.72
2022-09-03T09:37:27.573Z,3.67
2022-09-03T09:39:30.027Z,3.40
2022-09-03T09:41:34.706Z,4.45
2022-09-03T09:43:37.975Z,3.67
2022-09-03T09:45:42.820Z,4.43
2022-09-03T09:47:47.250Z,3.37
2022-09-03T09:49:49.480Z,3.58
2022-09-03T09:52:02.222Z,3.62
2022-09-03T09:54:18.713Z,4.05
2022-09-03T09:56:24.019Z,3.30
2022-09-03T09:58:30.989Z,3.62
2022-09-03T10:00:35.011Z,3.30
2022-09-03T10:02:40.548Z,3.17
2022-09-03T10:04:45.826Z,3.40
2022-09-03T10:07:15.745Z,3.28
2022-09-03T10:09:23.450Z,3.65
2022-09-03T10:11:38.235Z,3.30
2022-09-03T10:13:45.821Z,3.40
2022-09-03T10:15:58.838Z,5.32
2022-09-03T10:18:28.228Z,3.47
2022-09-03T10:20:49.860Z,4.22
2022-09-03T10:22:57.754Z,3.15
2022-09-03T10:25:03.386Z,3.00
2022-09-03T10:27:12.241Z,3.25
2022-09-03T10:29:21.952Z,3.33
2022-09-03T10:31:41.468Z,4.18
2022-09-03T10:33:53.043Z,3.33
2022-09-03T10:36:21.425Z,3.47
2022-09-03T10:38:26.434Z,4.20
2022-09-03T10:40:42.815Z,4.15
2022-09-03T10:43:09.062Z,3.72
2022-09-03T10:45:31.781Z,4.10
2022-09-03T10:47:59.626Z,3.90
2022-09-03T10:50:17.484Z,3.58
2022-09-03T10:52:33.593Z,3.20
2022-09-03T10:54:39.059Z,3.65
2022-09-03T10:56:57.004Z,6.93
2022-09-03T10:59:11.648Z,3.95
2022-09-03T11:01:43.090Z,3.25
2022-09-03T11:04:19.984Z,4.03
2022-09-03T11:06:29.526Z,3.05
2022-09-03T11:08:34.496Z,3.05
2022-09-03T11:10:50.191Z,2.90
2022-09-03T11:13:20.722Z,2.85
2022-09-03T11:15:31.473Z,3.35
2022-09-03T11:17:49.186Z,3.60
2022-09-03T11:20:08.715Z,2.80
2022-09-03T11:22:13.209Z,2.92
2022-09-03T11:24:22.578Z,2.58
2022-09-03T11:26:26.460Z,3.28
2022-09-03T11:28:58.651Z,2.50
2022-09-03T11:31:24.018Z,2.90
2022-09-03T11:33:28.547Z,2.15
2022-09-03T11:35:34.070Z,2.12
2022-09-03T11:37:59.315Z,3.20
2022-09-03T11:40:19.444Z,2.33
2022-09-03T11:46:59.131Z,2.40
2022-09-03T11:49:13.815Z,2.00
2022-09-03T11:51:25.558Z,2.28
2022-09-03T11:53:35.038Z,2.10
2022-09-03T11:55:54.712Z,2.30
2022-09-03T11:57:58.749Z,2.50
2022-09-03T12:00:18.162Z,2.28
2022-09-03T12:02:33.718Z,2.00
2022-09-03T12:05:04.060Z,2.08
2022-09-03T12:07:25.237Z,2.12
2022-09-03T12:09:30.716Z,2.70
2022-09-03T12:11:51.324Z,2.08
2022-09-03T12:14:29.076Z,2.25
2022-09-03T12:16:31.648Z,2.42
2022-09-03T12:18:36.716Z,2.12
2022-09-03T12:20:40.489Z,2.00
2022-09-03T12:22:43.259Z,2.03
2022-09-03T12:24:45.718Z,2.05
2022-09-03T12:26:48.039Z,1.70
2022-09-03T12:28:53.275Z,3.33
2022-09-03T12:31:08.304Z,1.83
2022-09-03T12:33:14.257Z,2.58
2022-09-03T12:40:18.328Z,1.95
2022-09-03T12:42:26.088Z,2.62
2022-09-03T12:44:30.145Z,2.03
2022-09-03T12:46:34.551Z,1.50
2022-09-03T12:48:40.322Z,2.20
2022-09-03T12:50:49.397Z,2.12
2022-09-03T12:53:03.654Z,1.90
2022-09-03T12:55:15.329Z,2.25
2022-09-03T12:57:22.696Z,1.60
2022-09-03T12:59:29.211Z,2.00
2022-09-03T13:01:38.638Z,3.40
2022-09-03T13:04:17.215Z,2.22
2022-09-03T13:06:23.215Z,2.10
2022-09-03T13:08:31.812Z,2.40
2022-09-03T13:10:39.037Z,2.50
2022-09-03T13:12:53.439Z,2.72
2022-09-03T13:14:56.207Z,3.05
2022-09-03T13:17:06.758Z,2.60
2022-09-03T13:19:18.256Z,2.42
2022-09-03T13:21:45.361Z,2.30
2022-09-03T13:24:16.195Z,2.78
2022-09-03T13:26:41.097Z,2.45
2022-09-03T13:29:18.948Z,2.35
2022-09-03T13:31:43.745Z,2.65
2022-09-03T13:33:53.004Z,2.90
2022-09-03T13:36:02.706Z,2.28
2022-09-03T13:38:23.056Z,2.85
2022-09-03T13:40:31.719Z,2.33
2022-09-03T13:42:39.401Z,1.80
2022-09-03T13:44:52.874Z,2.15
2022-09-03T13:47:13.294Z,1.98
2022-09-03T13:50:07.397Z,1.62
2022-09-03T13:52:22.464Z,1.90
2022-09-03T13:54:49.498Z,1.87
2022-09-03T13:57:16.400Z,1.92
2022-09-03T13:59:48.820Z,6.00
2022-09-03T14:02:07.011Z,2.87
2022-09-03T14:04:21.222Z,2.17
2022-09-03T14:07:04.814Z,1.90
2022-09-03T14:09:34.918Z,2.00
2022-09-03T14:12:01.278Z,1.90
2022-09-03T14:14:41.644Z,1.80
2022-09-03T14:19:06.894Z,2.20
2022-09-03T14:21:20.061Z,1.95
2022-09-03T14:23:46.216Z,2.28
2022-09-03T14:25:58.725Z,1.90
2022-09-03T14:28:19.725Z,1.85
2022-09-03T14:30:38.177Z,1.83
2022-09-03T14:32:50.741Z,2.10
2022-09-03T14:35:06.062Z,1.85
2022-09-03T14:37:30.094Z,2.40
2022-09-03T14:39:56.411Z,2.17
2022-09-03T14:42:24.409Z,2.30
2022-09-03T14:44:36.153Z,2.25
2022-09-03T14:47:07.599Z,2.37
2022-09-03T14:49:42.115Z,2.92
2022-09-03T14:52:11.906Z,2.15
2022-09-03T14:54:26.103Z,2.37
2022-09-03T14:56:45.289Z,1.87
2022-09-03T14:59:14.139Z,1.80
2022-09-03T15:01:33.965Z,2.47
2022-09-03T15:04:06.768Z,1.85
2022-09-03T15:06:37.472Z,2.28
2022-09-03T15:09:15.359Z,2.15
2022-09-03T15:11:22.861Z,1.70
2022-09-03T15:13:45.328Z,1.75
2022-09-03T15:16:06.766Z,2.22
2022-09-03T15:18:27.765Z,1.60
2022-09-03T15:20:31.370Z,1.83
2022-09-03T15:23:14.070Z,2.10
2022-09-03T15:25:37.181Z,2.25
2022-09-03T15:27:45.281Z,1.77
2022-09-03T15:30:07.825Z,2.15
2022-09-03T15:32:19.476Z,2.90
2022-09-03T15:34:21.676Z,3.00
2022-09-03T15:36:28.516Z,9.27
2022-09-03T15:39:04.920Z,2.75
2022-09-03T15:41:17.997Z,2.05
2022-09-03T15:43:30.483Z,1.80
2022-09-03T15:45:49.715Z,2.30
2022-09-03T15:47:56.117Z,2.42
2022-09-03T15:50:03.045Z,2.00
2022-09-03T15:52:48.860Z,2.72
2022-09-03T15:55:12.776Z,2.15
2022-09-03T15:57:37.266Z,2.83
2022-09-03T16:00:07.646Z,2.58
2022-09-03T16:04:49.100Z,1.98
2022-09-03T16:07:02.292Z,2.00
2022-09-03T16:09:26.145Z,2.45
2022-09-03T16:11:55.454Z,3.28
2022-09-03T16:14:08.451Z,2.12
2022-09-03T16:16:30.594Z,2.10
2022-09-03T16:18:49.756Z,2.00
2022-09-03T16:21:01.488Z,2.72
2022-09-03T16:23:33.154Z,2.03
2022-09-03T16:25:45.225Z,2.97
2022-09-03T16:27:56.969Z,3.62
2022-09-03T16:29:59.484Z,2.53
2022-09-03T16:32:34.361Z,2.33
2022-09-03T16:35:01.521Z,2.37
2022-09-03T16:37:13.259Z,2.60
2022-09-03T16:39:40.287Z,2.55
2022-09-03T16:41:58.644Z,2.80
2022-09-03T16:44:26.348Z,2.95
2022-09-03T16:46:50.666Z,3.20
2022-09-03T16:49:08.235Z,2.97
2022-09-03T16:51:21.130Z,2.90
2022-09-03T16:54:09.040Z,2.53
2022-09-03T16:56:37.923Z,3.45
2022-09-03T16:58:55.735Z,3.10
2022-09-03T17:01:07.044Z,4.20
2022-09-03T17:03:39.302Z,3.33
2022-09-03T17:06:00.759Z,3.97
2022-09-03T17:08:25.330Z,3.53
2022-09-03T17:10:55.310Z,3.53
2022-09-03T17:13:29.966Z,3.70
2022-09-03T17:16:01.267Z,3.37
2022-09-03T17:18:19.737Z,3.58
2022-09-03T17:20:39.907Z,3.83
2022-09-03T17:22:53.482Z,4.57
2022-09-03T17:25:08.525Z,4.65
2022-09-03T17:27:25.545Z,2.55
2022-09-03T17:29:49.680Z,3.55
2022-09-03T17:32:14.237Z,4.00
2022-09-03T17:34:37.673Z,6.75
2022-09-03T17:36:51.753Z,6.05
2022-09-03T17:39:22.817Z,4.00
2022-09-03T17:41:38.570Z,6.97
2022-09-03T17:43:54.996Z,5.10
2022-09-03T17:46:16.101Z,6.03
2022-09-03T17:48:36.907Z,3.72
2022-09-03T17:51:09.552Z,3.70
2022-09-03T17:53:26.916Z,5.95
2022-09-03T17:56:09.946Z,6.97
2022-09-03T17:58:47.874Z,4.57
2022-09-03T18:01:08.861Z,6.72
2022-09-03T18:03:53.196Z,5.37
2022-09-03T18:06:04.451Z,4.78
2022-09-03T18:08:12.844Z,4.50
2022-09-03T18:10:32.346Z,7.45
2022-09-03T18:13:01.470Z,4.68
2022-09-03T18:15:09.465Z,4.45
2022-09-03T18:17:31.415Z,4.97
2022-09-03T18:19:58.146Z,3.87
2022-09-03T18:22:23.403Z,4.18
2022-09-03T18:24:58.434Z,3.72
2022-09-03T18:27:28.426Z,3.80
2022-09-03T18:30:02.175Z,4.07
2022-09-03T18:32:24.483Z,4.12
2022-09-03T18:34:50.414Z,5.07
2022-09-03T18:37:11.774Z,4.93
2022-09-03T18:39:46.020Z,5.15
2022-09-03T18:42:24.740Z,4.72
2022-09-03T18:45:21.453Z,4.55
2022-09-03T18:48:01.552Z,4.40
2022-09-03T18:50:45.247Z,4.40
2022-09-03T18:53:21.418Z,4.43
2022-09-03T18:56:08.692Z,4.85
2022-09-03T18:58:38.554Z,5.10
2022-09-03T19:01:16.062Z,5.00
2022-09-03T19:04:25.416Z,4.87
2022-09-03T19:07:00.665Z,5.25
2022-09-03T19:10:04.713Z,5.05
2022-09-03T19:12:41.196Z,4.82
2022-09-03T19:15:20.437Z,5.25
2022-09-03T19:18:21.250Z,5.50
2022-09-03T19:20:49.668Z,5.37
2022-09-03T19:23:11.489Z,4.72
2022-09-03T19:25:35.077Z,4.57
2022-09-03T19:28:27.037Z,4.72
2022-09-03T19:31:05.375Z,5.20
2022-09-03T19:33:32.677Z,7.82
2022-09-03T19:36:08.866Z,6.32
2022-09-03T19:38:38.766Z,5.12
2022-09-03T19:41:24.956Z,7.80
2022-09-03T19:43:52.533Z,4.57
2022-09-03T19:46:31.073Z,5.30
2022-09-03T19:49:28.577Z,4.62
2022-09-03T19:52:06.233Z,5.05
2022-09-03T19:54:28.088Z,5.20
2022-09-03T19:56:49.463Z,7.07
2022-09-03T19:59:17.213Z,5.22
2022-09-03T20:01:39.805Z,5.37
2022-09-03T20:04:01.639Z,5.53
2022-09-03T20:06:26.715Z,5.45
2022-09-03T20:08:49.156Z,6.53
2022-09-03T20:10:56.712Z,11.12
2022-09-03T20:13:02.819Z,6.35
2022-09-03T20:15:07.093Z,4.87
2022-09-03T20:17:32.393Z,5.37
2022-09-03T20:20:02.637Z,4.68
2022-09-03T20:22:29.941Z,4.70
2022-09-03T20:24:56.501Z,4.05
2022-09-03T20:27:36.667Z,7.47
2022-09-03T20:30:01.224Z,8.48
2022-09-03T20:32:44.624Z,4.70
2022-09-03T20:35:13.701Z,7.93
2022-09-03T20:37:15.981Z,7.55
2022-09-03T20:39:36.476Z,6.47
2022-09-03T20:44:24.510Z,15.65
2022-09-03T20:46:49.466Z,8.15
2022-09-03T20:49:01.142Z,4.72
2022-09-03T20:51:27.397Z,5.30
2022-09-03T20:53:57.971Z,4.65
2022-09-03T20:58:38.084Z,4.62
2022-09-03T21:00:58.054Z,4.05
2022-09-03T21:03:15.368Z,3.87
2022-09-03T21:05:20.663Z,3.85
2022-09-03T21:07:22.997Z,4.75
2022-09-03T21:09:37.356Z,4.60
2022-09-03T21:11:55.332Z,4.30
2022-09-03T21:14:01.077Z,17.65
2022-09-03T21:16:17.001Z,4.50
2022-09-03T21:18:50.148Z,4.53
2022-09-03T21:20:58.645Z,3.92
2022-09-03T21:23:35.206Z,4.53
2022-09-03T21:25:42.640Z,4.32
2022-09-03T21:27:50.212Z,5.55
2022-09-03T21:29:58.511Z,4.70
2022-09-03T21:32:25.050Z,5.10
2022-09-03T21:34:37.874Z,4.60
2022-09-03T21:36:43.419Z,4.93
2022-09-03T21:38:50.972Z,6.43
2022-09-03T21:41:34.023Z,5.10
2022-09-03T21:43:50.234Z,5.00
2022-09-03T21:46:07.892Z,5.53
2022-09-03T21:48:25.412Z,5.55
2022-09-03T21:51:00.187Z,4.87
2022-09-03T21:53:31.791Z,5.20
2022-09-03T21:55:52.633Z,4.97
2022-09-03T21:58:22.084Z,5.12
2022-09-03T22:00:35.015Z,4.65
2022-09-03T22:02:38.515Z,4.87
2022-09-03T22:04:40.837Z,5.90
2022-09-03T22:07:11.191Z,5.07
2022-09-03T22:09:37.665Z,5.30
2022-09-03T22:11:53.504Z,5.05
